sensor_id;sensor_type;location;lat;lon;timestamp;pressure;altitude;pressure_sealevel;temperature;humidity
32759;BME280;19125;52.360;9.974;2023-09-08T00:01:47;85548.34;;;-145.17;52.89
32759;BME280;19125;52.360;9.974;2023-09-08T00:04:13;85635.63;;;-145.17;52.92
32759;BME280;19125;52.360;9.974;2023-09-08T00:06:39;85611.81;;;-145.17;53.05
32759;BME280;19125;52.360;9.974;2023-09-08T00:09:05;85607.84;;;-145.17;53.11
32759;BME280;19125;52.360;9.974;2023-09-08T00:11:30;85615.78;;;-145.17;53.27
32759;BME280;19125;52.360;9.974;2023-09-08T00:13:55;85629.69;;;-145.17;53.32
32759;BME280;19125;52.360;9.974;2023-09-08T00:16:21;85619.75;;;-145.17;53.39
32759;BME280;19125;52.360;9.974;2023-09-08T00:18:46;85641.59;;;-145.17;53.29
32759;BME280;19125;52.360;9.974;2023-09-08T00:21:11;85649.53;;;-145.17;53.49
32759;BME280;19125;52.360;9.974;2023-09-08T00:23:37;85647.53;;;-145.17;53.49
32759;BME280;19125;52.360;9.974;2023-09-08T00:26:02;85657.47;;;-145.17;53.66
32759;BME280;19125;52.360;9.974;2023-09-08T00:28:28;85673.34;;;-145.17;53.64
32759;BME280;19125;52.360;9.974;2023-09-08T00:30:53;85647.53;;;-145.17;53.60
32759;BME280;19125;52.360;9.974;2023-09-08T00:33:18;85695.16;;;-145.17;53.84
32759;BME280;19125;52.360;9.974;2023-09-08T00:35:44;85689.22;;;-145.17;53.92
32759;BME280;19125;52.360;9.974;2023-09-08T00:38:10;85720.97;;;-145.17;53.94
32759;BME280;19125;52.360;9.974;2023-09-08T00:40:35;85758.66;;;-145.17;54.00
32759;BME280;19125;52.360;9.974;2023-09-08T00:43:01;85711.03;;;-145.17;54.04
32759;BME280;19125;52.360;9.974;2023-09-08T00:45:27;85726.91;;;-145.17;54.13
32759;BME280;19125;52.360;9.974;2023-09-08T00:47:54;85738.81;;;-145.17;54.43
32759;BME280;19125;52.360;9.974;2023-09-08T00:50:20;85734.84;;;-145.17;54.47
32759;BME280;19125;52.360;9.974;2023-09-08T00:52:45;85768.56;;;-145.17;54.59
32759;BME280;19125;52.360;9.974;2023-09-08T00:55:10;85768.56;;;-145.17;54.57
32759;BME280;19125;52.360;9.974;2023-09-08T00:57:36;85776.50;;;-145.17;54.76
32759;BME280;19125;52.360;9.974;2023-09-08T01:00:02;85786.44;;;-145.17;54.98
32759;BME280;19125;52.360;9.974;2023-09-08T01:02:30;85776.50;;;-145.17;54.97
32759;BME280;19125;52.360;9.974;2023-09-08T01:04:57;85828.09;;;-145.17;54.91
32759;BME280;19125;52.360;9.974;2023-09-08T01:07:25;85830.09;;;-145.17;54.97
32759;BME280;19125;52.360;9.974;2023-09-08T01:09:52;85826.13;;;-145.17;55.08
32759;BME280;19125;52.360;9.974;2023-09-08T01:12:18;85842.00;;;-145.17;55.13
32759;BME280;19125;52.360;9.974;2023-09-08T01:14:44;85913.41;;;-145.17;55.16
32759;BME280;19125;52.360;9.974;2023-09-08T01:17:09;85903.50;;;-145.17;55.25
32759;BME280;19125;52.360;9.974;2023-09-08T01:19:35;85853.91;;;-145.17;55.50
32759;BME280;19125;52.360;9.974;2023-09-08T01:25:01;85889.63;;;-145.17;55.44
32759;BME280;19125;52.360;9.974;2023-09-08T01:27:28;85895.56;;;-145.17;55.65
32759;BME280;19125;52.360;9.974;2023-09-08T01:29:54;85887.63;;;-145.17;55.56
32759;BME280;19125;52.360;9.974;2023-09-08T01:32:20;85861.84;;;-145.17;55.49
32759;BME280;19125;52.360;9.974;2023-09-08T01:34:46;85877.72;;;-145.17;55.50
32759;BME280;19125;52.360;9.974;2023-09-08T01:37:11;85879.69;;;-145.17;55.67
32759;BME280;19125;52.360;9.974;2023-09-08T01:39:37;85901.53;;;-145.17;55.78
32759;BME280;19125;52.360;9.974;2023-09-08T01:42:02;85881.69;;;-145.17;55.83
32759;BME280;19125;52.360;9.974;2023-09-08T01:44:28;85933.25;;;-145.17;55.80
32759;BME280;19125;52.360;9.974;2023-09-08T01:46:53;85935.25;;;-145.17;55.86
32759;BME280;19125;52.360;9.974;2023-09-08T01:49:25;85943.19;;;-145.17;55.97
32759;BME280;19125;52.360;9.974;2023-09-08T01:51:50;85953.09;;;-145.17;55.93
32759;BME280;19125;52.360;9.974;2023-09-08T01:54:16;85974.94;;;-145.17;56.41
32759;BME280;19125;52.360;9.974;2023-09-08T01:56:41;86024.53;;;-145.17;56.32
32759;BME280;19125;52.360;9.974;2023-09-08T01:59:07;86014.63;;;-145.17;56.51
32759;BME280;19125;52.360;9.974;2023-09-08T02:01:32;86016.59;;;-145.17;56.74
32759;BME280;19125;52.360;9.974;2023-09-08T02:03:57;86042.41;;;-145.17;56.50
32759;BME280;19125;52.360;9.974;2023-09-08T02:06:23;86040.41;;;-145.17;56.84
32759;BME280;19125;52.360;9.974;2023-09-08T02:08:48;86074.16;;;-145.17;56.81
32759;BME280;19125;52.360;9.974;2023-09-08T02:11:13;86097.97;;;-145.17;56.95
32759;BME280;19125;52.360;9.974;2023-09-08T02:13:41;86109.88;;;-145.17;57.02
32759;BME280;19125;52.360;9.974;2023-09-08T02:16:07;86117.81;;;-145.17;57.16
32759;BME280;19125;52.360;9.974;2023-09-08T02:18:33;86121.78;;;-145.17;57.32
32759;BME280;19125;52.360;9.974;2023-09-08T02:20:58;86167.41;;;-145.17;57.40
32759;BME280;19125;52.360;9.974;2023-09-08T02:23:23;86161.47;;;-145.17;57.64
32759;BME280;19125;52.360;9.974;2023-09-08T02:25:49;86175.34;;;-145.17;57.77
32759;BME280;19125;52.360;9.974;2023-09-08T02:28:14;86215.03;;;-145.17;57.83
32759;BME280;19125;52.360;9.974;2023-09-08T02:30:39;86274.56;;;-145.17;57.73
32759;BME280;19125;52.360;9.974;2023-09-08T02:33:05;86270.59;;;-145.17;57.90
32759;BME280;19125;52.360;9.974;2023-09-08T02:35:30;86306.31;;;-145.17;58.20
32759;BME280;19125;52.360;9.974;2023-09-08T02:37:56;86357.91;;;-145.17;58.21
32759;BME280;19125;52.360;9.974;2023-09-08T02:40:21;86413.47;;;-145.17;58.13
32759;BME280;19125;52.360;9.974;2023-09-08T02:42:46;86437.28;;;-145.17;58.01
32759;BME280;19125;52.360;9.974;2023-09-08T02:45:12;86475.00;;;-145.17;58.06
32759;BME280;19125;52.360;9.974;2023-09-08T02:47:37;86486.91;;;-145.17;58.34
32759;BME280;19125;52.360;9.974;2023-09-08T02:50:02;86536.53;;;-145.17;58.04
32759;BME280;19125;52.360;9.974;2023-09-08T02:52:30;86514.69;;;-145.17;58.24
32759;BME280;19125;52.360;9.974;2023-09-08T02:54:55;86588.13;;;-145.17;58.52
32759;BME280;19125;52.360;9.974;2023-09-08T02:57:21;86602.00;;;-145.17;58.54
32759;BME280;19125;52.360;9.974;2023-09-08T02:59:49;86641.72;;;-145.17;58.67
32759;BME280;19125;52.360;9.974;2023-09-08T03:02:16;86647.66;;;-145.17;58.85
32759;BME280;19125;52.360;9.974;2023-09-08T03:04:41;86663.53;;;-145.17;58.94
32759;BME280;19125;52.360;9.974;2023-09-08T03:07:06;86701.25;;;-145.17;58.93
32759;BME280;19125;52.360;9.974;2023-09-08T03:09:33;86677.44;;;-145.17;58.96
32759;BME280;19125;52.360;9.974;2023-09-08T03:11:59;86723.06;;;-145.17;58.77
32759;BME280;19125;52.360;9.974;2023-09-08T03:14:24;86691.31;;;-145.17;58.89
32759;BME280;19125;52.360;9.974;2023-09-08T03:16:49;86689.34;;;-145.17;58.85
32759;BME280;19125;52.360;9.974;2023-09-08T03:19:14;86731.00;;;-145.17;59.05
32759;BME280;19125;52.360;9.974;2023-09-08T03:21:40;86727.03;;;-145.17;59.11
32759;BME280;19125;52.360;9.974;2023-09-08T03:24:05;86746.91;;;-145.17;59.00
32759;BME280;19125;52.360;9.974;2023-09-08T03:26:30;86786.59;;;-145.17;59.31
32759;BME280;19125;52.360;9.974;2023-09-08T03:28:56;86744.91;;;-145.17;59.16
32759;BME280;19125;52.360;9.974;2023-09-08T03:31:21;86746.91;;;-145.17;59.52
32759;BME280;19125;52.360;9.974;2023-09-08T03:33:46;86782.63;;;-145.17;59.54
32759;BME280;19125;52.360;9.974;2023-09-08T03:36:12;86794.53;;;-145.17;59.60
32759;BME280;19125;52.360;9.974;2023-09-08T03:38:37;86818.34;;;-145.17;59.62
32759;BME280;19125;52.360;9.974;2023-09-08T03:41:03;86830.25;;;-145.17;59.66
32759;BME280;19125;52.360;9.974;2023-09-08T03:43:28;86939.41;;;-145.17;59.72
32759;BME280;19125;52.360;9.974;2023-09-08T03:45:53;86905.66;;;-145.17;59.83
32759;BME280;19125;52.360;9.974;2023-09-08T03:48:19;86929.47;;;-145.17;60.01
32759;BME280;19125;52.360;9.974;2023-09-08T03:50:44;86921.53;;;-145.17;60.14
32759;BME280;19125;52.360;9.974;2023-09-08T03:53:11;86961.25;;;-145.17;60.86
32759;BME280;19125;52.360;9.974;2023-09-08T03:55:36;87012.84;;;-145.17;60.85
32759;BME280;19125;52.360;9.974;2023-09-08T03:58:02;86979.09;;;-145.17;60.90
32759;BME280;19125;52.360;9.974;2023-09-08T04:00:27;87066.44;;;-145.17;61.15
32759;BME280;19125;52.360;9.974;2023-09-08T04:02:53;87022.78;;;-145.17;61.54
32759;BME280;19125;52.360;9.974;2023-09-08T04:05:18;87068.41;;;-145.17;61.36
32759;BME280;19125;52.360;9.974;2023-09-08T04:07:45;87125.97;;;-145.17;61.58
32759;BME280;19125;52.360;9.974;2023-09-08T04:10:10;87094.22;;;-145.17;61.85
32759;BME280;19125;52.360;9.974;2023-09-08T04:12:35;87088.28;;;-145.17;62.23
32759;BME280;19125;52.360;9.974;2023-09-08T04:15:01;87078.34;;;-145.17;62.39
32759;BME280;19125;52.360;9.974;2023-09-08T04:17:26;87106.13;;;-145.17;62.51
32759;BME280;19125;52.360;9.974;2023-09-08T04:19:51;87145.81;;;-145.17;62.77
32759;BME280;19125;52.360;9.974;2023-09-08T04:22:17;86991.00;;;-145.17;62.86
32759;BME280;19125;52.360;9.974;2023-09-08T04:24:42;87018.81;;;-145.17;63.01
32759;BME280;19125;52.360;9.974;2023-09-08T04:27:07;86993.00;;;-145.17;63.12
32759;BME280;19125;52.360;9.974;2023-09-08T04:29:34;86963.22;;;-145.17;63.18
32759;BME280;19125;52.360;9.974;2023-09-08T04:31:59;86907.66;;;-145.17;63.60
32759;BME280;19125;52.360;9.974;2023-09-08T04:34:25;86909.63;;;-145.17;63.12
32759;BME280;19125;52.360;9.974;2023-09-08T04:36:50;86871.94;;;-145.17;63.24
32759;BME280;19125;52.360;9.974;2023-09-08T04:39:16;86832.22;;;-145.17;63.47
32759;BME280;19125;52.360;9.974;2023-09-08T04:41:41;86754.84;;;-145.17;63.78
32759;BME280;19125;52.360;9.974;2023-09-08T04:44:06;86715.13;;;-145.17;63.76
32759;BME280;19125;52.360;9.974;2023-09-08T04:46:32;86584.16;;;-145.17;63.53
32759;BME280;19125;52.360;9.974;2023-09-08T04:48:57;86542.47;;;-145.17;63.92
32759;BME280;19125;52.360;9.974;2023-09-08T04:51:22;86492.88;;;-145.17;63.76
32759;BME280;19125;52.360;9.974;2023-09-08T04:53:47;86308.31;;;-145.17;63.92
32759;BME280;19125;52.360;9.974;2023-09-08T04:56:13;86207.09;;;-145.17;64.13
32759;BME280;19125;52.360;9.974;2023-09-08T04:58:38;86072.16;;;-145.17;64.29
32759;BME280;19125;52.360;9.974;2023-09-08T05:01:04;85994.78;;;-145.17;64.04
32759;BME280;19125;52.360;9.974;2023-09-08T05:03:31;85963.03;;;-145.17;64.04
32759;BME280;19125;52.360;9.974;2023-09-08T05:05:56;85955.09;;;-145.17;64.08
32759;BME280;19125;52.360;9.974;2023-09-08T05:08:21;85933.25;;;-145.17;63.82
32759;BME280;19125;52.360;9.974;2023-09-08T05:10:47;85988.81;;;-145.17;63.90
32759;BME280;19125;52.360;9.974;2023-09-08T05:13:12;86072.16;;;-145.17;63.63
32759;BME280;19125;52.360;9.974;2023-09-08T05:15:38;86191.22;;;-145.17;63.70
32759;BME280;19125;52.360;9.974;2023-09-08T05:18:04;86342.03;;;-145.17;63.55
32759;BME280;19125;52.360;9.974;2023-09-08T05:20:30;86443.25;;;-145.17;63.01
32759;BME280;19125;52.360;9.974;2023-09-08T05:22:55;86568.28;;;-145.17;63.07
32759;BME280;19125;52.360;9.974;2023-09-08T05:25:20;86623.84;;;-145.17;62.96
32759;BME280;19125;52.360;9.974;2023-09-08T05:27:46;86607.97;;;-145.17;62.82
32759;BME280;19125;52.360;9.974;2023-09-08T05:30:11;86667.50;;;-145.17;62.86
32759;BME280;19125;52.360;9.974;2023-09-08T05:32:37;86727.03;;;-145.17;62.63
32759;BME280;19125;52.360;9.974;2023-09-08T05:35:02;86750.88;;;-145.17;62.43
32759;BME280;19125;52.360;9.974;2023-09-08T05:37:28;86796.50;;;-145.17;62.68
32759;BME280;19125;52.360;9.974;2023-09-08T05:39:53;86798.50;;;-145.17;62.28
32759;BME280;19125;52.360;9.974;2023-09-08T05:42:18;86879.88;;;-145.17;61.87
32759;BME280;19125;52.360;9.974;2023-09-08T05:44:44;86897.72;;;-145.17;61.92
32759;BME280;19125;52.360;9.974;2023-09-08T05:47:10;86923.53;;;-145.17;61.84
32759;BME280;19125;52.360;9.974;2023-09-08T05:49:35;86889.78;;;-145.17;61.92
32759;BME280;19125;52.360;9.974;2023-09-08T05:52:01;86973.16;;;-145.17;61.78
32759;BME280;19125;52.360;9.974;2023-09-08T05:54:26;86901.69;;;-145.17;61.77
32759;BME280;19125;52.360;9.974;2023-09-08T05:56:51;86883.84;;;-145.17;61.78
32759;BME280;19125;52.360;9.974;2023-09-08T05:59:17;86887.81;;;-145.17;61.52
32759;BME280;19125;52.360;9.974;2023-09-08T06:01:43;86864.00;;;-145.17;61.28
32759;BME280;19125;52.360;9.974;2023-09-08T06:04:08;86834.22;;;-145.17;60.90
32759;BME280;19125;52.360;9.974;2023-09-08T06:06:33;86850.09;;;-145.17;60.90
32759;BME280;19125;52.360;9.974;2023-09-08T06:08:59;86818.34;;;-145.17;60.99
32759;BME280;19125;52.360;9.974;2023-09-08T06:11:24;86784.59;;;-145.17;61.11
32759;BME280;19125;52.360;9.974;2023-09-08T06:13:52;86806.44;;;-145.17;60.80
32759;BME280;19125;52.360;9.974;2023-09-08T06:16:24;86772.69;;;-145.17;60.63
32759;BME280;19125;52.360;9.974;2023-09-08T06:18:50;86699.25;;;-145.17;60.84
32759;BME280;19125;52.360;9.974;2023-09-08T06:21:15;86746.91;;;-145.17;60.51
32759;BME280;19125;52.360;9.974;2023-09-08T06:23:40;86657.59;;;-145.17;60.58
32759;BME280;19125;52.360;9.974;2023-09-08T06:26:06;86627.81;;;-145.17;60.38
32759;BME280;19125;52.360;9.974;2023-09-08T06:28:31;86564.31;;;-145.17;60.05
32759;BME280;19125;52.360;9.974;2023-09-08T06:30:56;86510.72;;;-145.17;59.56
32759;BME280;19125;52.360;9.974;2023-09-08T06:33:22;86473.03;;;-145.17;59.27
32759;BME280;19125;52.360;9.974;2023-09-08T06:35:47;86369.81;;;-145.17;58.85
32759;BME280;19125;52.360;9.974;2023-09-08T06:38:13;86294.41;;;-145.17;58.75
32759;BME280;19125;52.360;9.974;2023-09-08T06:40:39;86262.66;;;-145.17;58.60
32759;BME280;19125;52.360;9.974;2023-09-08T06:43:04;86258.69;;;-145.17;58.09
32759;BME280;19125;52.360;9.974;2023-09-08T06:45:29;86159.47;;;-145.17;57.94
32759;BME280;19125;52.360;9.974;2023-09-08T06:47:55;86092.00;;;-145.17;57.53
32759;BME280;19125;52.360;9.974;2023-09-08T06:50:23;86026.53;;;-145.17;57.36
32759;BME280;19125;52.360;9.974;2023-09-08T06:52:49;85943.19;;;-145.17;56.92
32759;BME280;19125;52.360;9.974;2023-09-08T06:55:15;85897.53;;;-145.17;56.62
32759;BME280;19125;52.360;9.974;2023-09-08T06:57:42;85881.69;;;-145.17;56.53
32759;BME280;19125;52.360;9.974;2023-09-08T07:00:08;85826.13;;;-145.17;56.19
32759;BME280;19125;52.360;9.974;2023-09-08T07:02:33;85758.66;;;-145.17;56.18
32759;BME280;19125;52.360;9.974;2023-09-08T07:04:59;85679.28;;;-145.17;55.58
32759;BME280;19125;52.360;9.974;2023-09-08T07:07:24;85667.38;;;-145.17;55.01
32759;BME280;19125;52.360;9.974;2023-09-08T07:09:50;85592.00;;;-145.17;54.81
32759;BME280;19125;52.360;9.974;2023-09-08T07:12:15;85544.38;;;-145.17;54.51
32759;BME280;19125;52.360;9.974;2023-09-08T07:14:41;85510.63;;;-145.17;54.42
32759;BME280;19125;52.360;9.974;2023-09-08T07:17:06;85451.13;;;-145.17;53.88
32759;BME280;19125;52.360;9.974;2023-09-08T07:19:31;85409.47;;;-145.17;53.19
32759;BME280;19125;52.360;9.974;2023-09-08T07:21:57;85361.84;;;-145.17;53.06
32759;BME280;19125;52.360;9.974;2023-09-08T07:24:22;85314.22;;;-145.17;52.19
32759;BME280;19125;52.360;9.974;2023-09-08T07:26:48;85256.69;;;-145.17;51.78
32759;BME280;19125;52.360;9.974;2023-09-08T07:29:14;85238.84;;;-145.17;51.50
32759;BME280;19125;52.360;9.974;2023-09-08T07:31:39;85195.19;;;-145.17;50.87
32759;BME280;19125;52.360;9.974;2023-09-08T07:34:04;85270.56;;;-145.17;50.53
32759;BME280;19125;52.360;9.974;2023-09-08T07:36:30;85133.69;;;-145.17;50.55
32759;BME280;19125;52.360;9.974;2023-09-08T07:38:55;85099.97;;;-145.17;50.29
32759;BME280;19125;52.360;9.974;2023-09-08T07:41:20;85133.69;;;-145.17;50.28
32759;BME280;19125;52.360;9.974;2023-09-08T07:43:46;84996.81;;;-145.17;50.07
32759;BME280;19125;52.360;9.974;2023-09-08T07:46:11;85056.31;;;-145.17;49.70
32759;BME280;19125;52.360;9.974;2023-09-08T07:48:36;85028.53;;;-145.17;49.26
32759;BME280;19125;52.360;9.974;2023-09-08T07:51:02;84965.06;;;-145.17;49.08
32759;BME280;19125;52.360;9.974;2023-09-08T07:53:27;84961.09;;;-145.17;48.42
32759;BME280;19125;52.360;9.974;2023-09-08T07:55:53;84921.41;;;-145.17;48.32
32759;BME280;19125;52.360;9.974;2023-09-08T07:58:18;84913.50;;;-145.17;47.59
32759;BME280;19125;52.360;9.974;2023-09-08T08:00:44;84897.63;;;-145.17;47.47
32759;BME280;19125;52.360;9.974;2023-09-08T08:03:09;84846.03;;;-145.17;47.24
32759;BME280;19125;52.360;9.974;2023-09-08T08:05:35;84778.59;;;-145.17;47.20
32759;BME280;19125;52.360;9.974;2023-09-08T08:08:01;84752.81;;;-145.17;47.00
32759;BME280;19125;52.360;9.974;2023-09-08T08:10:27;84738.91;;;-145.17;45.94
32759;BME280;19125;52.360;9.974;2023-09-08T08:12:52;84699.25;;;-145.17;45.54
32759;BME280;19125;52.360;9.974;2023-09-08T08:15:19;84655.59;;;-145.17;45.25
32759;BME280;19125;52.360;9.974;2023-09-08T08:17:46;84679.41;;;-145.17;45.11
32759;BME280;19125;52.360;9.974;2023-09-08T08:20:11;84667.50;;;-145.17;44.47
32759;BME280;19125;52.360;9.974;2023-09-08T08:22:43;84631.81;;;-145.17;44.68
32759;BME280;19125;52.360;9.974;2023-09-08T08:25:08;84602.03;;;-145.17;44.43
32759;BME280;19125;52.360;9.974;2023-09-08T08:27:34;84572.28;;;-145.17;44.04
32759;BME280;19125;52.360;9.974;2023-09-08T08:29:59;84576.25;;;-145.17;43.58
32759;BME280;19125;52.360;9.974;2023-09-08T08:32:26;84615.94;;;-145.17;43.59
32759;BME280;19125;52.360;9.974;2023-09-08T08:34:52;84542.53;;;-145.17;42.98
32759;BME280;19125;52.360;9.974;2023-09-08T08:37:18;84479.06;;;-145.17;42.55
32759;BME280;19125;52.360;9.974;2023-09-08T08:39:43;84475.09;;;-145.17;42.25
32759;BME280;19125;52.360;9.974;2023-09-08T08:42:09;84455.25;;;-145.17;41.67
32759;BME280;19125;52.360;9.974;2023-09-08T08:44:37;84485.03;;;-145.17;41.43
32759;BME280;19125;52.360;9.974;2023-09-08T08:47:03;84401.72;;;-145.17;40.71
32759;BME280;19125;52.360;9.974;2023-09-08T08:49:31;84368.00;;;-145.17;40.74
32759;BME280;19125;52.360;9.974;2023-09-08T08:51:58;84369.97;;;-145.17;41.05
32759;BME280;19125;52.360;9.974;2023-09-08T08:54:24;84336.25;;;-145.17;40.55
32759;BME280;19125;52.360;9.974;2023-09-08T08:56:50;84334.28;;;-145.17;39.81
32759;BME280;19125;52.360;9.974;2023-09-08T08:59:16;84316.41;;;-145.17;39.57
32759;BME280;19125;52.360;9.974;2023-09-08T09:01:42;84286.66;;;-145.17;39.66
32759;BME280;19125;52.360;9.974;2023-09-08T09:04:08;84266.84;;;-145.17;38.83
32759;BME280;19125;52.360;9.974;2023-09-08T09:06:35;84227.16;;;-145.17;39.13
32759;BME280;19125;52.360;9.974;2023-09-08T09:09:01;84225.19;;;-145.17;39.25
32759;BME280;19125;52.360;9.974;2023-09-08T09:11:29;84199.41;;;-145.17;39.21
32759;BME280;19125;52.360;9.974;2023-09-08T09:13:56;84197.41;;;-145.17;39.49
32759;BME280;19125;52.360;9.974;2023-09-08T09:16:21;84145.84;;;-145.17;39.72
32759;BME280;19125;52.360;9.974;2023-09-08T09:21:20;84151.78;;;-145.17;39.43
32759;BME280;19125;52.360;9.974;2023-09-08T09:23:45;84128.00;;;-145.17;39.46
32759;BME280;19125;52.360;9.974;2023-09-08T09:26:22;84124.03;;;-145.17;39.78
32759;BME280;19125;52.360;9.974;2023-09-08T09:28:48;84112.13;;;-145.17;38.93
32759;BME280;19125;52.360;9.974;2023-09-08T09:31:13;84126.00;;;-145.17;39.25
32759;BME280;19125;52.360;9.974;2023-09-08T09:33:39;84120.06;;;-145.17;39.34
32759;BME280;19125;52.360;9.974;2023-09-08T09:36:05;84058.56;;;-145.17;39.10
32759;BME280;19125;52.360;9.974;2023-09-08T09:38:31;84050.66;;;-145.17;38.83
32759;BME280;19125;52.360;9.974;2023-09-08T09:40:56;84009.00;;;-145.17;39.31
32759;BME280;19125;52.360;9.974;2023-09-08T09:43:22;84016.94;;;-145.17;38.70
32759;BME280;19125;52.360;9.974;2023-09-08T09:45:48;84010.97;;;-145.17;38.31
32759;BME280;19125;52.360;9.974;2023-09-08T09:48:14;84028.84;;;-145.17;38.19
32759;BME280;19125;52.360;9.974;2023-09-08T09:50:41;83953.47;;;-145.17;38.21
32759;BME280;19125;52.360;9.974;2023-09-08T09:53:16;83947.50;;;-145.17;37.56
32759;BME280;19125;52.360;9.974;2023-09-08T09:55:43;83939.59;;;-145.17;37.18
32759;BME280;19125;52.360;9.974;2023-09-08T09:58:09;83941.56;;;-145.17;37.11
32759;BME280;19125;52.360;9.974;2023-09-08T10:00:35;83909.84;;;-145.17;37.03
32759;BME280;19125;52.360;9.974;2023-09-08T10:03:03;83899.91;;;-145.17;37.19
32759;BME280;19125;52.360;9.974;2023-09-08T10:05:29;83927.69;;;-145.17;36.67
32759;BME280;19125;52.360;9.974;2023-09-08T10:07:54;83897.94;;;-145.17;36.42
32759;BME280;19125;52.360;9.974;2023-09-08T10:10:21;83862.22;;;-145.17;36.00
32759;BME280;19125;52.360;9.974;2023-09-08T10:12:54;83838.44;;;-145.17;35.83
32759;BME280;19125;52.360;9.974;2023-09-08T10:15:23;83838.44;;;-145.17;35.66
32759;BME280;19125;52.360;9.974;2023-09-08T10:17:54;83737.28;;;-145.17;35.85
32759;BME280;19125;52.360;9.974;2023-09-08T10:20:24;83778.94;;;-145.17;35.16
32759;BME280;19125;52.360;9.974;2023-09-08T10:23:05;83739.28;;;-145.17;34.93
32759;BME280;19125;52.360;9.974;2023-09-08T10:25:35;83691.69;;;-145.17;34.31
32759;BME280;19125;52.360;9.974;2023-09-08T10:28:03;83695.66;;;-145.17;34.50
32759;BME280;19125;52.360;9.974;2023-09-08T10:30:30;83737.28;;;-145.17;34.32
32759;BME280;19125;52.360;9.974;2023-09-08T10:32:55;83681.75;;;-145.17;33.92
32759;BME280;19125;52.360;9.974;2023-09-08T10:35:21;83689.69;;;-145.17;34.35
32759;BME280;19125;52.360;9.974;2023-09-08T10:37:47;83661.94;;;-145.17;33.99
32759;BME280;19125;52.360;9.974;2023-09-08T10:40:31;83606.41;;;-145.17;33.92
32759;BME280;19125;52.360;9.974;2023-09-08T10:43:11;83566.75;;;-145.17;33.19
32759;BME280;19125;52.360;9.974;2023-09-08T10:45:37;83602.44;;;-145.17;33.02
32759;BME280;19125;52.360;9.974;2023-09-08T10:48:02;83640.13;;;-145.17;32.99
32759;BME280;19125;52.360;9.974;2023-09-08T10:50:33;83580.63;;;-145.17;33.25
32759;BME280;19125;52.360;9.974;2023-09-08T10:55:52;83517.16;;;-145.17;32.46
32759;BME280;19125;52.360;9.974;2023-09-08T10:58:37;83443.78;;;-145.17;32.24
32759;BME280;19125;52.360;9.974;2023-09-08T11:01:05;83441.81;;;-145.17;32.04
32759;BME280;19125;52.360;9.974;2023-09-08T11:06:03;83402.16;;;-145.17;31.44
32759;BME280;19125;52.360;9.974;2023-09-08T11:08:28;83394.22;;;-145.17;31.19
32759;BME280;19125;52.360;9.974;2023-09-08T11:10:55;83394.22;;;-145.17;31.22
32759;BME280;19125;52.360;9.974;2023-09-08T11:13:21;83326.78;;;-145.17;30.55
32759;BME280;19125;52.360;9.974;2023-09-08T11:15:46;83306.97;;;-145.17;30.10
32759;BME280;19125;52.360;9.974;2023-09-08T11:18:11;83243.50;;;-145.17;29.76
32759;BME280;19125;52.360;9.974;2023-09-08T11:20:37;83205.84;;;-145.17;29.60
32759;BME280;19125;52.360;9.974;2023-09-08T11:23:03;83247.47;;;-145.17;28.79
32759;BME280;19125;52.360;9.974;2023-09-08T11:25:31;83225.66;;;-145.17;28.83
32759;BME280;19125;52.360;9.974;2023-09-08T11:27:57;83209.81;;;-145.17;29.08
32759;BME280;19125;52.360;9.974;2023-09-08T11:30:24;83197.91;;;-145.17;28.69
32759;BME280;19125;52.360;9.974;2023-09-08T11:32:49;83209.81;;;-145.17;29.01
32759;BME280;19125;52.360;9.974;2023-09-08T11:35:16;83189.97;;;-145.17;28.41
32759;BME280;19125;52.360;9.974;2023-09-08T11:37:41;83180.06;;;-145.17;27.99
32759;BME280;19125;52.360;9.974;2023-09-08T11:40:08;83152.31;;;-145.17;27.74
32759;BME280;19125;52.360;9.974;2023-09-08T11:42:41;83152.31;;;-145.17;27.64
32759;BME280;19125;52.360;9.974;2023-09-08T11:45:11;83148.34;;;-145.17;27.66
32759;BME280;19125;52.360;9.974;2023-09-08T11:47:42;83120.56;;;-145.17;27.68
32759;BME280;19125;52.360;9.974;2023-09-08T11:50:11;83148.34;;;-145.17;27.21
32759;BME280;19125;52.360;9.974;2023-09-08T11:52:42;83055.13;;;-145.17;27.38
32759;BME280;19125;52.360;9.974;2023-09-08T11:55:08;83086.88;;;-145.17;26.97
32759;BME280;19125;52.360;9.974;2023-09-08T11:57:34;83104.72;;;-145.17;27.00
32759;BME280;19125;52.360;9.974;2023-09-08T12:00:00;83098.75;;;-145.17;27.26
32759;BME280;19125;52.360;9.974;2023-09-08T12:02:34;83096.78;;;-145.17;26.67
32759;BME280;19125;52.360;9.974;2023-09-08T12:04:59;83005.56;;;-145.17;26.89
32759;BME280;19125;52.360;9.974;2023-09-08T12:07:24;83001.59;;;-145.17;26.67
32759;BME280;19125;52.360;9.974;2023-09-08T12:09:50;83013.50;;;-145.17;26.53
32759;BME280;19125;52.360;9.974;2023-09-08T12:12:15;82946.09;;;-145.17;26.24
32759;BME280;19125;52.360;9.974;2023-09-08T12:14:41;82950.06;;;-145.17;26.07
32759;BME280;19125;52.360;9.974;2023-09-08T12:17:07;82973.84;;;-145.17;26.23
32759;BME280;19125;52.360;9.974;2023-09-08T12:19:33;82965.91;;;-145.17;26.42
32759;BME280;19125;52.360;9.974;2023-09-08T12:22:03;82884.63;;;-145.17;26.35
32759;BME280;19125;52.360;9.974;2023-09-08T12:27:22;82910.41;;;-145.17;25.87
32759;BME280;19125;52.360;9.974;2023-09-08T12:29:54;82969.88;;;-145.17;25.94
32759;BME280;19125;52.360;9.974;2023-09-08T12:32:20;82957.97;;;-145.17;26.33
32759;BME280;19125;52.360;9.974;2023-09-08T12:34:45;82906.44;;;-145.17;25.90
32759;BME280;19125;52.360;9.974;2023-09-08T12:37:11;82912.38;;;-145.17;26.27
32759;BME280;19125;52.360;9.974;2023-09-08T12:39:38;82934.19;;;-145.17;25.92
32759;BME280;19125;52.360;9.974;2023-09-08T12:42:04;82862.81;;;-145.17;25.93
32759;BME280;19125;52.360;9.974;2023-09-08T12:44:29;82896.50;;;-145.17;26.00
32759;BME280;19125;52.360;9.974;2023-09-08T12:46:55;82902.47;;;-145.17;25.57
32759;BME280;19125;52.360;9.974;2023-09-08T12:49:20;82950.06;;;-145.17;25.64